createdAt,value
2019-03-20T00:00:27.056Z,85.80
2019-03-20T00:02:57.812Z,85.79
2019-03-20T00:05:29.627Z,85.93
2019-03-20T00:07:59.715Z,85.90
2019-03-20T00:10:30.942Z,85.87
2019-03-20T00:13:03.016Z,85.81
2019-03-20T00:15:34.831Z,85.93
2019-03-20T00:18:05.154Z,86.25
2019-03-20T00:20:35.690Z,86.20
2019-03-20T00:23:05.911Z,86.06
2019-03-20T00:25:36.594Z,86.03
2019-03-20T00:28:07.762Z,86.32
2019-03-20T00:30:37.996Z,86.39
2019-03-20T00:33:08.287Z,86.13
2019-03-20T00:35:40.686Z,86.21
2019-03-20T00:38:10.737Z,86.55
2019-03-20T00:40:40.992Z,86.82
2019-03-20T00:43:11.335Z,86.77
2019-03-20T00:45:41.593Z,87.42
2019-03-20T00:48:13.304Z,87.36
2019-03-20T00:50:45.525Z,87.79
2019-03-20T00:53:19.727Z,87.74
2019-03-20T00:55:53.266Z,87.52
2019-03-20T00:58:23.765Z,87.40
2019-03-20T01:00:54.108Z,87.27
2019-03-20T01:03:25.619Z,87.24
2019-03-20T01:05:55.763Z,87.24
2019-03-20T01:08:28.613Z,87.06
2019-03-20T01:11:01.692Z,87.46
2019-03-20T01:13:32.302Z,87.59
2019-03-20T01:16:03.526Z,87.60
2019-03-20T01:18:34.247Z,87.61
2019-03-20T01:21:04.523Z,87.75
2019-03-20T01:23:35.582Z,87.36
2019-03-20T01:26:06.256Z,87.11
2019-03-20T01:28:39.066Z,87.11
2019-03-20T01:31:10.446Z,87.49
2019-03-20T01:33:41.246Z,87.63
2019-03-20T01:36:11.542Z,87.50
2019-03-20T01:38:44.094Z,87.48
2019-03-20T01:41:16.617Z,87.65
2019-03-20T01:43:48.399Z,87.98
2019-03-20T01:46:18.870Z,88.18
2019-03-20T01:48:49.281Z,87.99
2019-03-20T01:51:23.819Z,87.77
2019-03-20T01:53:53.942Z,87.92
2019-03-20T01:56:24.119Z,87.81
2019-03-20T01:58:54.282Z,87.97
2019-03-20T02:01:26.279Z,87.98
2019-03-20T02:03:59.718Z,87.95
2019-03-20T02:06:30.372Z,88.10
2019-03-20T02:09:00.597Z,88.23
2019-03-20T02:11:32.782Z,88.24
2019-03-20T02:14:04.067Z,88.25
2019-03-20T02:16:34.423Z,88.22
2019-03-20T02:19:07.341Z,88.68
2019-03-20T02:21:37.996Z,88.73
2019-03-20T02:24:08.781Z,88.89
2019-03-20T02:26:41.777Z,89.04
2019-03-20T02:29:14.126Z,89.07
2019-03-20T02:31:44.305Z,89.02
2019-03-20T02:34:15.459Z,89.08
2019-03-20T02:36:45.637Z,89.03
2019-03-20T02:39:16.006Z,88.85
2019-03-20T02:41:48.046Z,88.56
2019-03-20T02:44:19.314Z,88.34
2019-03-20T02:46:52.498Z,88.48
2019-03-20T02:49:23.275Z,88.58
2019-03-20T02:51:53.611Z,88.87
2019-03-20T02:54:23.855Z,88.95
2019-03-20T02:56:54.104Z,88.79
2019-03-20T02:59:24.267Z,88.73
2019-03-20T03:01:54.427Z,88.63
2019-03-20T03:04:24.912Z,88.41
2019-03-20T03:06:57.847Z,88.64
2019-03-20T03:09:28.093Z,88.92
2019-03-20T03:11:59.935Z,88.90
2019-03-20T03:14:31.172Z,89.01
2019-03-20T03:17:01.554Z,89.06
2019-03-20T03:19:32.650Z,89.10
2019-03-20T03:22:06.653Z,88.87
2019-03-20T03:24:37.042Z,88.66
2019-03-20T03:27:07.428Z,88.97
2019-03-20T03:29:40.322Z,89.15
2019-03-20T03:32:10.486Z,89.23
2019-03-20T03:34:40.716Z,89.21
2019-03-20T03:37:10.957Z,89.18
2019-03-20T03:39:41.776Z,89.35
2019-03-20T03:42:12.089Z,89.43
2019-03-20T03:44:44.599Z,89.58
2019-03-20T03:47:14.772Z,89.52
2019-03-20T03:49:45.121Z,89.40
2019-03-20T03:52:15.791Z,89.40
2019-03-20T03:54:47.334Z,89.58
2019-03-20T03:57:17.602Z,89.62
2019-03-20T03:59:47.762Z,89.66
2019-03-20T04:02:18.201Z,89.68
2019-03-20T04:04:48.837Z,89.67
2019-03-20T04:07:19.167Z,89.69
2019-03-20T04:09:49.477Z,89.48
2019-03-20T04:12:20.406Z,89.58
2019-03-20T04:14:52.525Z,89.82
2019-03-20T04:17:27.509Z,89.87
2019-03-20T04:19:57.844Z,90.22
2019-03-20T04:22:28.156Z,90.31
2019-03-20T04:24:58.604Z,90.28
2019-03-20T04:27:29.280Z,90.17
2019-03-20T04:29:59.892Z,90.07
2019-03-20T04:32:30.028Z,89.99
2019-03-20T04:35:00.485Z,90.00
2019-03-20T04:37:31.130Z,90.13
2019-03-20T04:40:01.432Z,90.24
2019-03-20T04:42:31.684Z,90.45
2019-03-20T04:45:01.971Z,90.48
2019-03-20T04:47:32.318Z,90.56
2019-03-20T04:50:03.018Z,90.63
2019-03-20T04:52:33.267Z,90.59
2019-03-20T04:55:03.926Z,90.39
2019-03-20T04:57:34.229Z,90.29
2019-03-20T05:00:07.686Z,90.32
2019-03-20T05:02:38.085Z,90.46
2019-03-20T05:05:08.991Z,90.63
2019-03-20T05:07:42.409Z,90.65
2019-03-20T05:10:13.981Z,90.63
2019-03-20T05:12:45.479Z,90.54
2019-03-20T05:15:15.963Z,90.75
2019-03-20T05:17:48.804Z,90.81
2019-03-20T05:20:19.172Z,90.77
2019-03-20T05:22:49.563Z,90.77
2019-03-20T05:25:20.898Z,90.92
2019-03-20T05:27:51.455Z,90.84
2019-03-20T05:30:21.822Z,90.66
2019-03-20T05:32:54.984Z,90.59
2019-03-20T05:35:26.479Z,90.42
2019-03-20T05:37:56.871Z,90.48
2019-03-20T05:40:29.434Z,90.66
2019-03-20T05:43:00.033Z,90.80
2019-03-20T05:45:30.234Z,90.87
2019-03-20T05:48:00.676Z,90.88
2019-03-20T05:50:31.085Z,90.64
2019-03-20T05:53:03.274Z,90.34
2019-03-20T05:55:33.503Z,90.28
2019-03-20T05:58:06.455Z,90.84
2019-03-20T06:00:36.835Z,91.76
2019-03-20T06:03:10.170Z,92.37
2019-03-20T06:05:40.898Z,92.37
2019-03-20T06:08:13.274Z,91.87
2019-03-20T06:10:43.586Z,91.35
2019-03-20T06:13:14.609Z,90.90
2019-03-20T06:15:44.843Z,90.46
2019-03-20T06:18:15.204Z,89.89
2019-03-20T06:20:45.471Z,89.08
2019-03-20T06:23:17.614Z,88.32
2019-03-20T06:25:48.255Z,87.14
2019-03-20T06:28:18.853Z,87.14
2019-03-20T06:30:49.138Z,86.53
2019-03-20T06:33:19.538Z,86.35
2019-03-20T06:35:49.687Z,85.77
2019-03-20T06:38:20.166Z,84.78
2019-03-20T06:40:50.793Z,84.04
2019-03-20T06:43:21.204Z,83.87
2019-03-20T06:45:51.527Z,83.84
2019-03-20T06:48:21.684Z,83.42
2019-03-20T06:50:52.003Z,81.65
2019-03-20T06:53:22.738Z,81.65
2019-03-20T06:55:55.328Z,81.02
2019-03-20T06:58:25.798Z,80.47
2019-03-20T07:01:30.384Z,80.35
2019-03-20T07:04:31.288Z,80.29
2019-03-20T07:07:25.627Z,79.92
2019-03-20T07:10:23.862Z,79.68
2019-03-20T07:12:54.298Z,78.85
2019-03-20T07:15:24.504Z,78.10
2019-03-20T07:17:54.788Z,77.51
2019-03-20T07:20:24.948Z,77.92
2019-03-20T07:22:55.114Z,76.53
2019-03-20T07:25:25.366Z,76.03
2019-03-20T07:27:57.732Z,74.34
2019-03-20T07:30:28.156Z,74.33
2019-03-20T07:32:58.621Z,72.62
2019-03-20T07:35:29.013Z,72.51
2019-03-20T07:37:59.945Z,72.22
2019-03-20T07:40:30.040Z,70.44
2019-03-20T07:43:08.853Z,69.56
2019-03-20T07:45:32.743Z,68.04
2019-03-20T07:48:03.465Z,66.40
2019-03-20T07:50:34.243Z,64.76
2019-03-20T07:53:04.539Z,63.94
2019-03-20T07:55:35.413Z,63.45
2019-03-20T07:58:06.229Z,62.30
2019-03-20T08:00:36.838Z,58.95
2019-03-20T08:03:07.274Z,57.88
2019-03-20T08:05:38.449Z,55.54
2019-03-20T08:08:09.706Z,54.92
2019-03-20T08:10:40.259Z,53.13
2019-03-20T08:13:10.600Z,48.49
2019-03-20T08:15:40.889Z,43.24
2019-03-20T08:18:12.762Z,42.89
2019-03-20T08:20:43.119Z,41.66
2019-03-20T08:23:13.515Z,40.57
2019-03-20T08:25:46.218Z,38.55
2019-03-20T08:28:16.623Z,34.82
2019-03-20T08:30:46.903Z,33.22
2019-03-20T08:33:17.273Z,32.68
2019-03-20T08:35:47.485Z,31.68
2019-03-20T08:38:18.912Z,31.59
2019-03-20T08:40:52.707Z,30.93
2019-03-20T08:43:23.081Z,29.25
2019-03-20T08:45:53.543Z,27.49
2019-03-20T08:48:24.133Z,26.74
2019-03-20T08:50:54.641Z,27.02
2019-03-20T08:53:25.431Z,27.27
2019-03-20T08:55:56.074Z,26.05
2019-03-20T08:58:26.595Z,25.50
2019-03-20T09:00:57.391Z,23.89
2019-03-20T09:03:27.948Z,24.22
2019-03-20T09:06:00.318Z,24.19
2019-03-20T09:08:30.939Z,23.68
2019-03-20T09:11:01.424Z,22.99
2019-03-20T09:13:31.993Z,22.17
2019-03-20T09:16:02.310Z,21.65
2019-03-20T09:18:32.693Z,20.94
2019-03-20T09:21:03.587Z,20.48
2019-03-20T09:23:34.714Z,19.70
2019-03-20T09:26:09.047Z,19.72
2019-03-20T09:28:39.874Z,19.77
2019-03-20T09:31:10.375Z,19.33
2019-03-20T09:33:41.201Z,18.03
2019-03-20T09:36:11.708Z,18.27
2019-03-20T09:38:43.777Z,18.05
2019-03-20T09:41:14.172Z,17.50
2019-03-20T09:43:44.574Z,17.51
2019-03-20T09:46:15.088Z,16.96
2019-03-20T09:48:45.520Z,16.38
2019-03-20T09:51:17.958Z,17.49
2019-03-20T09:53:49.725Z,17.92
2019-03-20T09:56:22.801Z,18.89
2019-03-20T09:58:59.011Z,17.81
2019-03-20T10:01:31.834Z,16.49
2019-03-20T10:04:04.617Z,17.59
2019-03-20T10:06:34.808Z,17.43
2019-03-20T10:09:09.370Z,16.08
2019-03-20T10:11:39.696Z,15.17
2019-03-20T10:14:13.493Z,14.47
2019-03-20T10:16:43.878Z,14.62
2019-03-20T10:19:17.258Z,14.50
2019-03-20T10:21:47.518Z,14.34
2019-03-20T10:24:17.848Z,15.49
2019-03-20T10:26:50.335Z,13.98
2019-03-20T10:29:20.886Z,15.95
2019-03-20T10:31:51.076Z,15.71
2019-03-20T10:34:21.469Z,15.40
2019-03-20T10:36:54.999Z,14.16
2019-03-20T10:39:25.573Z,15.59
2019-03-20T10:41:56.062Z,15.57
2019-03-20T10:44:26.780Z,15.67
2019-03-20T10:46:57.094Z,17.51
2019-03-20T10:49:27.415Z,15.14
2019-03-20T10:52:04.868Z,13.75
2019-03-20T10:54:37.700Z,13.24
2019-03-20T10:57:08.391Z,13.12
2019-03-20T10:59:39.018Z,12.77
2019-03-20T11:02:09.203Z,14.01
2019-03-20T11:04:39.850Z,14.29
2019-03-20T11:07:10.318Z,13.73
2019-03-20T11:09:40.644Z,12.92
2019-03-20T11:12:11.123Z,12.09
2019-03-20T11:14:41.717Z,15.30
2019-03-20T11:17:12.203Z,15.64
2019-03-20T11:19:45.911Z,15.21
2019-03-20T11:22:19.212Z,13.39
2019-03-20T11:24:50.439Z,12.78
2019-03-20T11:27:20.839Z,12.97
2019-03-20T11:29:54.406Z,13.65
2019-03-20T11:32:25.209Z,13.53
2019-03-20T11:34:56.435Z,13.49
2019-03-20T11:37:26.704Z,15.08
2019-03-20T11:39:57.080Z,14.52
2019-03-20T11:42:29.614Z,15.53
2019-03-20T11:45:00.640Z,14.07
2019-03-20T11:47:31.155Z,13.57
2019-03-20T11:50:04.188Z,13.43
2019-03-20T11:52:34.326Z,12.70
2019-03-20T11:55:05.570Z,13.47
2019-03-20T11:57:35.855Z,15.17
2019-03-20T12:00:07.739Z,16.23
2019-03-20T12:02:37.990Z,16.23
2019-03-20T12:05:11.134Z,15.94
2019-03-20T12:07:41.431Z,15.61
2019-03-20T12:10:14.851Z,15.72
2019-03-20T12:12:45.327Z,15.28
2019-03-20T12:15:15.744Z,14.03
2019-03-20T12:17:45.973Z,13.72
2019-03-20T12:20:17.726Z,14.84
2019-03-20T12:22:50.168Z,15.85
2019-03-20T12:25:23.488Z,15.30
2019-03-20T12:27:53.762Z,15.38
2019-03-20T12:30:27.197Z,14.92
2019-03-20T12:32:57.678Z,13.68
2019-03-20T12:35:29.038Z,14.67
2019-03-20T12:37:59.452Z,13.50
2019-03-20T12:40:30.687Z,13.02
2019-03-20T12:43:01.424Z,12.93
2019-03-20T12:45:33.099Z,13.51
2019-03-20T12:48:03.370Z,13.18
2019-03-20T12:50:33.635Z,11.88
2019-03-20T12:53:04.200Z,11.13
2019-03-20T12:55:34.902Z,10.64
2019-03-20T12:58:05.759Z,11.46
2019-03-20T13:00:36.068Z,11.58
2019-03-20T13:03:06.351Z,11.00
2019-03-20T13:05:36.608Z,13.09
2019-03-20T13:08:07.273Z,13.42
2019-03-20T13:10:38.911Z,13.93
2019-03-20T13:13:09.200Z,13.40
2019-03-20T13:15:39.470Z,13.37
2019-03-20T13:18:10.104Z,12.75
2019-03-20T13:20:40.699Z,11.57
2019-03-20T13:23:15.823Z,11.59
2019-03-20T13:25:46.170Z,12.07
2019-03-20T13:28:20.817Z,12.72
2019-03-20T13:30:57.056Z,12.59
2019-03-20T13:33:28.489Z,13.63
2019-03-20T13:35:59.121Z,13.42
2019-03-20T13:38:29.478Z,13.60
2019-03-20T13:40:59.882Z,13.28
2019-03-20T13:43:30.230Z,14.25
2019-03-20T13:46:01.241Z,13.58
2019-03-20T13:48:32.792Z,12.58
2019-03-20T13:51:03.467Z,14.30
2019-03-20T13:53:36.810Z,13.16
2019-03-20T13:56:07.035Z,15.80
2019-03-20T13:58:37.448Z,17.56
2019-03-20T14:01:08.126Z,18.38
2019-03-20T14:03:38.396Z,18.38
2019-03-20T14:06:11.329Z,19.09
2019-03-20T14:08:41.582Z,19.32
2019-03-20T14:11:13.744Z,17.92
2019-03-20T14:13:44.001Z,18.79
2019-03-20T14:16:14.286Z,18.17
2019-03-20T14:18:44.528Z,18.45
2019-03-20T14:21:14.738Z,18.78
2019-03-20T14:23:46.995Z,18.31
2019-03-20T14:26:17.215Z,18.30
2019-03-20T14:28:47.420Z,18.34
2019-03-20T14:31:20.870Z,18.58
2019-03-20T14:33:51.366Z,18.64
2019-03-20T14:36:21.730Z,19.27
2019-03-20T14:38:51.937Z,19.27
2019-03-20T14:41:24.781Z,20.15
2019-03-20T14:43:56.205Z,18.71
2019-03-20T14:46:26.484Z,21.53
2019-03-20T14:48:56.666Z,20.89
2019-03-20T14:51:27.137Z,21.15
2019-03-20T14:53:57.253Z,22.96
2019-03-20T14:56:27.711Z,23.02
2019-03-20T14:58:58.999Z,25.24
2019-03-20T15:01:31.071Z,24.95
2019-03-20T15:04:03.994Z,26.93
2019-03-20T15:06:34.529Z,25.64
2019-03-20T15:09:07.203Z,24.61
2019-03-20T15:11:37.782Z,25.76
2019-03-20T15:14:08.179Z,24.68
2019-03-20T15:16:39.981Z,26.11
2019-03-20T15:19:10.496Z,26.23
2019-03-20T15:21:44.235Z,27.73
2019-03-20T15:24:15.800Z,27.66
2019-03-20T15:26:46.229Z,27.59
2019-03-20T15:29:16.365Z,27.71
2019-03-20T15:31:47.390Z,28.22
2019-03-20T15:34:17.638Z,27.87
2019-03-20T15:36:48.187Z,26.94
2019-03-20T15:39:18.825Z,26.26
2019-03-20T15:41:49.357Z,28.13
2019-03-20T15:44:19.501Z,28.46
2019-03-20T15:46:50.034Z,27.87
2019-03-20T15:49:20.214Z,27.71
2019-03-20T15:51:50.814Z,28.09
2019-03-20T15:54:21.164Z,28.94
2019-03-20T15:56:51.480Z,28.80
2019-03-20T15:59:21.690Z,28.74
2019-03-20T16:01:53.144Z,28.61
2019-03-20T16:04:24.892Z,28.70
2019-03-20T16:06:57.411Z,29.93
2019-03-20T16:09:28.019Z,31.43
2019-03-20T16:11:58.360Z,31.17
2019-03-20T16:14:28.863Z,31.06
2019-03-20T16:16:59.138Z,31.06
2019-03-20T16:19:29.776Z,30.81
2019-03-20T16:22:00.208Z,30.44
2019-03-20T16:24:30.613Z,31.34
2019-03-20T16:27:03.829Z,31.64
2019-03-20T16:29:35.634Z,32.17
2019-03-20T16:32:11.588Z,32.51
2019-03-20T16:34:41.952Z,33.05
2019-03-20T16:37:12.158Z,32.83
2019-03-20T16:39:42.513Z,33.65
2019-03-20T16:42:12.889Z,32.61
2019-03-20T16:44:43.391Z,31.45
2019-03-20T16:47:16.016Z,31.92
2019-03-20T16:49:46.441Z,32.22
2019-03-20T16:52:17.079Z,32.60
2019-03-20T16:54:47.531Z,33.34
2019-03-20T16:57:18.155Z,33.90
2019-03-20T16:59:48.555Z,34.02
2019-03-20T17:02:19.071Z,33.85
2019-03-20T17:04:49.747Z,34.83
2019-03-20T17:07:20.345Z,35.15
2019-03-20T17:09:56.640Z,35.95
2019-03-20T17:12:26.880Z,37.40
2019-03-20T17:14:57.426Z,37.90
2019-03-20T17:17:27.896Z,37.98
2019-03-20T17:19:58.052Z,38.51
2019-03-20T17:22:29.578Z,38.87
2019-03-20T17:24:59.714Z,39.36
2019-03-20T17:27:29.892Z,39.52
2019-03-20T17:30:00.323Z,39.93
2019-03-20T17:32:31.009Z,40.11
2019-03-20T17:35:01.210Z,41.33
2019-03-20T17:37:36.013Z,41.16
2019-03-20T17:40:07.158Z,41.66
2019-03-20T17:42:39.924Z,43.01
2019-03-20T17:45:12.010Z,44.33
2019-03-20T17:47:42.261Z,44.04
2019-03-20T17:50:18.382Z,44.01
2019-03-20T17:53:08.562Z,45.44
2019-03-20T17:55:38.874Z,46.56
2019-03-20T17:58:10.486Z,46.12
2019-03-20T18:00:43.376Z,45.39
2019-03-20T18:03:13.876Z,47.23
2019-03-20T18:05:44.549Z,48.03
2019-03-20T18:08:14.820Z,47.10
2019-03-20T18:10:45.185Z,47.39
2019-03-20T18:13:15.783Z,47.56
2019-03-20T18:15:46.262Z,49.56
2019-03-20T18:18:16.739Z,49.93
2019-03-20T18:20:46.878Z,51.29
2019-03-20T18:23:20.040Z,51.22
2019-03-20T18:25:50.292Z,51.89
2019-03-20T18:28:21.752Z,52.36
2019-03-20T18:30:54.138Z,51.59
2019-03-20T18:33:24.541Z,51.39
2019-03-20T18:35:55.320Z,53.19
2019-03-20T18:38:27.168Z,52.98
2019-03-20T18:40:57.842Z,53.66
2019-03-20T18:43:29.120Z,53.28
2019-03-20T18:46:01.279Z,53.16
2019-03-20T18:48:36.202Z,53.69
2019-03-20T18:51:06.630Z,53.65
2019-03-20T18:53:39.699Z,55.62
2019-03-20T18:56:09.960Z,57.94
2019-03-20T18:58:40.339Z,58.79
2019-03-20T19:01:10.571Z,58.72
2019-03-20T19:03:43.312Z,57.44
2019-03-20T19:06:17.717Z,57.43
2019-03-20T19:08:48.078Z,57.26
2019-03-20T19:11:18.359Z,57.88
2019-03-20T19:13:52.019Z,59.08
2019-03-20T19:16:22.366Z,59.85
2019-03-20T19:18:53.386Z,59.84
2019-03-20T19:21:23.678Z,59.90
2019-03-20T19:23:55.208Z,61.07
2019-03-20T19:26:25.982Z,60.63
2019-03-20T19:28:56.328Z,60.06
2019-03-20T19:31:29.360Z,59.84
2019-03-20T19:34:00.700Z,60.35
2019-03-20T19:36:30.858Z,61.02
2019-03-20T19:39:01.206Z,61.42
2019-03-20T19:41:33.071Z,61.93
2019-03-20T19:44:04.815Z,62.17
2019-03-20T19:46:35.372Z,63.11
2019-03-20T19:49:06.424Z,64.06
2019-03-20T19:51:36.781Z,64.21
2019-03-20T19:54:07.174Z,65.00
2019-03-20T19:56:39.190Z,65.16
2019-03-20T19:59:11.709Z,65.35
2019-03-20T20:01:42.401Z,65.93
2019-03-20T20:04:14.459Z,66.38
2019-03-20T20:06:47.552Z,66.15
2019-03-20T20:09:19.220Z,66.08
2019-03-20T20:11:50.009Z,66.40
2019-03-20T20:14:21.253Z,67.64
2019-03-20T20:16:53.966Z,67.25
2019-03-20T20:19:24.575Z,67.31
2019-03-20T20:21:55.183Z,67.42
2019-03-20T20:24:26.119Z,67.89
2019-03-20T20:26:56.832Z,67.99
2019-03-20T20:29:27.615Z,67.91
2019-03-20T20:32:07.607Z,68.08
2019-03-20T20:34:33.432Z,68.20
2019-03-20T20:37:03.891Z,69.10
2019-03-20T20:39:34.306Z,69.21
2019-03-20T20:42:11.769Z,69.55
2019-03-20T20:44:45.082Z,69.72
2019-03-20T20:47:18.531Z,69.92
2019-03-20T20:49:49.553Z,70.15
2019-03-20T20:52:20.805Z,70.09
2019-03-20T20:54:51.454Z,70.12
2019-03-20T20:57:22.020Z,70.37
2019-03-20T20:59:52.360Z,70.50
2019-03-20T21:02:26.961Z,70.91
2019-03-20T21:04:57.631Z,70.91
2019-03-20T21:07:27.872Z,71.32
2019-03-20T21:09:58.112Z,71.79
2019-03-20T21:12:31.232Z,71.72
2019-03-20T21:15:05.891Z,71.90
2019-03-20T21:17:50.865Z,72.54
2019-03-20T21:20:21.843Z,72.70
2019-03-20T21:23:40.350Z,73.26
2019-03-20T21:26:13.760Z,73.58
2019-03-20T21:29:27.180Z,74.06
2019-03-20T21:32:09.840Z,73.98
2019-03-20T21:35:25.971Z,73.97
2019-03-20T21:38:04.361Z,73.92
2019-03-20T21:40:54.488Z,74.13
2019-03-20T21:44:06.836Z,74.07
2019-03-20T21:47:21.244Z,74.21
2019-03-20T21:49:53.045Z,74.42
2019-03-20T21:52:25.585Z,74.53
2019-03-20T21:55:40.352Z,75.12
2019-03-20T21:58:34.961Z,75.80
2019-03-20T22:01:52.662Z,75.80
2019-03-20T22:04:23.968Z,75.91
2019-03-20T22:07:07.139Z,77.04
2019-03-20T22:10:16.329Z,76.82
2019-03-20T22:12:56.225Z,76.84
2019-03-20T22:15:41.628Z,77.37
2019-03-20T22:19:02.421Z,78.22
2019-03-20T22:22:09.956Z,77.68
2019-03-20T22:25:16.544Z,77.58
2019-03-20T22:27:58.883Z,77.62
2019-03-20T22:30:29.829Z,77.79
2019-03-20T22:33:49.212Z,77.67
2019-03-20T22:36:24.544Z,77.75
2019-03-20T22:39:54.035Z,78.04
2019-03-20T22:42:49.057Z,78.12
2019-03-20T22:46:05.677Z,78.58
2019-03-20T22:49:17.307Z,78.93
2019-03-20T22:52:35.697Z,78.63
2019-03-20T22:55:37.970Z,78.31
2019-03-20T22:58:28.102Z,78.52
2019-03-20T23:00:58.979Z,78.81
2019-03-20T23:03:35.030Z,78.71
2019-03-20T23:06:06.136Z,78.87
2019-03-20T23:08:36.831Z,78.87
2019-03-20T23:11:08.840Z,79.08
2019-03-20T23:13:41.731Z,79.22
2019-03-20T23:16:13.668Z,79.08
2019-03-20T23:18:47.770Z,78.92
2019-03-20T23:21:19.000Z,78.95
2019-03-20T23:23:49.847Z,79.16
2019-03-20T23:26:20.621Z,79.20
2019-03-20T23:28:51.989Z,79.53
2019-03-20T23:31:22.931Z,79.87
2019-03-20T23:33:53.964Z,79.89
2019-03-20T23:36:27.041Z,79.87
2019-03-20T23:38:58.228Z,80.11
2019-03-20T23:41:29.372Z,80.11
2019-03-20T23:44:01.458Z,80.08
2019-03-20T23:46:32.283Z,80.31
2019-03-20T23:49:15.527Z,80.56
2019-03-20T23:51:52.148Z,80.91
2019-03-20T23:54:28.129Z,80.83
2019-03-20T23:56:58.925Z,80.59
2019-03-20T23:59:32.803Z,80.68
